sensor_id;sensor_type;location;lat;lon;timestamp;pressure;altitude;pressure_sealevel;temperature;humidity
36380;BME280;22411;53.016;18.632;2023-06-14T00:00:42;100992.84;;;14.57;100.00
36380;BME280;22411;53.016;18.632;2023-06-14T00:03:29;100989.75;;;14.63;100.00
36380;BME280;22411;53.016;18.632;2023-06-14T00:05:57;100971.00;;;14.70;100.00
36380;BME280;22411;53.016;18.632;2023-06-14T00:08:23;100976.00;;;14.73;100.00
36380;BME280;22411;53.016;18.632;2023-06-14T00:10:50;100966.03;;;14.67;100.00
36380;BME280;22411;53.016;18.632;2023-06-14T00:13:16;100955.63;;;14.55;100.00
36380;BME280;22411;53.016;18.632;2023-06-14T00:15:41;100952.97;;;14.44;100.00
36380;BME280;22411;53.016;18.632;2023-06-14T00:18:08;100957.25;;;14.45;100.00
36380;BME280;22411;53.016;18.632;2023-06-14T00:20:35;100957.13;;;14.47;100.00
36380;BME280;22411;53.016;18.632;2023-06-14T00:23:01;100946.59;;;14.48;100.00
36380;BME280;22411;53.016;18.632;2023-06-14T00:25:26;100940.66;;;14.46;100.00
36380;BME280;22411;53.016;18.632;2023-06-14T00:27:53;100948.13;;;14.39;100.00
36380;BME280;22411;53.016;18.632;2023-06-14T00:30:19;100952.63;;;14.37;100.00
36380;BME280;22411;53.016;18.632;2023-06-14T00:32:45;100955.69;;;14.43;100.00
36380;BME280;22411;53.016;18.632;2023-06-14T00:35:11;100954.28;;;14.50;100.00
36380;BME280;22411;53.016;18.632;2023-06-14T00:37:38;100949.19;;;14.59;100.00
36380;BME280;22411;53.016;18.632;2023-06-14T00:40:04;100940.53;;;14.70;100.00
36380;BME280;22411;53.016;18.632;2023-06-14T00:42:31;100931.78;;;14.71;100.00
36380;BME280;22411;53.016;18.632;2023-06-14T00:44:56;100926.44;;;14.61;100.00
36380;BME280;22411;53.016;18.632;2023-06-14T00:47:23;100923.00;;;14.50;100.00
36380;BME280;22411;53.016;18.632;2023-06-14T00:49:49;100917.66;;;14.40;100.00
36380;BME280;22411;53.016;18.632;2023-06-14T00:52:17;100918.13;;;14.34;100.00
36380;BME280;22411;53.016;18.632;2023-06-14T00:54:43;100917.53;;;14.30;100.00
36380;BME280;22411;53.016;18.632;2023-06-14T00:57:10;100922.84;;;14.29;100.00
36380;BME280;22411;53.016;18.632;2023-06-14T00:59:47;100922.50;;;14.33;100.00
36380;BME280;22411;53.016;18.632;2023-06-14T01:02:13;100924.19;;;14.34;100.00
36380;BME280;22411;53.016;18.632;2023-06-14T01:04:45;100918.72;;;14.37;100.00
36380;BME280;22411;53.016;18.632;2023-06-14T01:10:04;100915.50;;;14.23;100.00
36380;BME280;22411;53.016;18.632;2023-06-14T01:13:53;100917.63;;;14.18;100.00
36380;BME280;22411;53.016;18.632;2023-06-14T01:15:49;100921.31;;;14.15;100.00
36380;BME280;22411;53.016;18.632;2023-06-14T01:18:16;100916.00;;;14.17;100.00
36380;BME280;22411;53.016;18.632;2023-06-14T01:20:46;100914.22;;;14.17;100.00
36380;BME280;22411;53.016;18.632;2023-06-14T01:23:19;100915.50;;;14.23;100.00
36380;BME280;22411;53.016;18.632;2023-06-14T01:25:46;100911.25;;;14.22;100.00
36380;BME280;22411;53.016;18.632;2023-06-14T01:28:15;100908.78;;;14.20;100.00
36380;BME280;22411;53.016;18.632;2023-06-14T01:30:44;100908.16;;;14.17;100.00
36380;BME280;22411;53.016;18.632;2023-06-14T01:33:17;100902.69;;;13.97;100.00
36380;BME280;22411;53.016;18.632;2023-06-14T01:35:51;100887.38;;;13.70;100.00
36380;BME280;22411;53.016;18.632;2023-06-14T01:38:20;100890.00;;;13.70;100.00
36380;BME280;22411;53.016;18.632;2023-06-14T01:40:48;100876.38;;;13.67;100.00
36380;BME280;22411;53.016;18.632;2023-06-14T01:43:16;100882.56;;;13.66;100.00
36380;BME280;22411;53.016;18.632;2023-06-14T01:45:42;100869.25;;;13.57;100.00
36380;BME280;22411;53.016;18.632;2023-06-14T01:48:09;100864.50;;;13.51;100.00
36380;BME280;22411;53.016;18.632;2023-06-14T01:50:35;100853.84;;;13.43;100.00
36380;BME280;22411;53.016;18.632;2023-06-14T01:53:00;100857.03;;;13.36;100.00
36380;BME280;22411;53.016;18.632;2023-06-14T01:55:26;100853.59;;;13.35;100.00
36380;BME280;22411;53.016;18.632;2023-06-14T01:57:53;100860.94;;;13.41;100.00
36380;BME280;22411;53.016;18.632;2023-06-14T02:00:19;100864.84;;;13.47;100.00
36380;BME280;22411;53.016;18.632;2023-06-14T02:02:47;100858.81;;;13.46;100.00
36380;BME280;22411;53.016;18.632;2023-06-14T02:05:12;100862.03;;;13.50;100.00
36380;BME280;22411;53.016;18.632;2023-06-14T02:07:38;100865.22;;;13.53;100.00
36380;BME280;22411;53.016;18.632;2023-06-14T02:10:05;100865.22;;;13.53;100.00
36380;BME280;22411;53.016;18.632;2023-06-14T02:12:31;100866.50;;;13.48;100.00
36380;BME280;22411;53.016;18.632;2023-06-14T02:14:57;100857.03;;;13.47;100.00
36380;BME280;22411;53.016;18.632;2023-06-14T02:17:24;100859.66;;;13.47;100.00
36380;BME280;22411;53.016;18.632;2023-06-14T02:19:50;100859.06;;;13.54;100.00
36380;BME280;22411;53.016;18.632;2023-06-14T02:22:16;100867.34;;;13.59;100.00
36380;BME280;22411;53.016;18.632;2023-06-14T02:24:42;100870.34;;;13.66;100.00
36380;BME280;22411;53.016;18.632;2023-06-14T02:27:08;100871.66;;;13.72;100.00
36380;BME280;22411;53.016;18.632;2023-06-14T02:29:37;100871.75;;;13.70;100.00
36380;BME280;22411;53.016;18.632;2023-06-14T02:32:04;100874.47;;;13.69;100.00
36380;BME280;22411;53.016;18.632;2023-06-14T02:34:30;100866.03;;;13.54;100.00
36380;BME280;22411;53.016;18.632;2023-06-14T02:36:56;100866.38;;;13.49;100.00
36380;BME280;22411;53.016;18.632;2023-06-14T02:39:22;100872.44;;;13.50;100.00
36380;BME280;22411;53.016;18.632;2023-06-14T02:41:49;100863.56;;;13.52;100.00
36380;BME280;22411;53.016;18.632;2023-06-14T02:44:18;100862.88;;;13.62;100.00
36380;BME280;22411;53.016;18.632;2023-06-14T02:46:44;100861.94;;;13.63;100.00
36380;BME280;22411;53.016;18.632;2023-06-14T02:49:13;100862.63;;;13.65;100.00
36380;BME280;22411;53.016;18.632;2023-06-14T02:51:39;100864.06;;;13.69;100.00
36380;BME280;22411;53.016;18.632;2023-06-14T02:54:05;100865.72;;;13.70;100.00
36380;BME280;22411;53.016;18.632;2023-06-14T02:56:31;100873.31;;;13.73;100.00
36380;BME280;22411;53.016;18.632;2023-06-14T02:58:56;100879.97;;;13.77;100.00
36380;BME280;22411;53.016;18.632;2023-06-14T03:01:22;100881.38;;;13.81;100.00
36380;BME280;22411;53.016;18.632;2023-06-14T03:03:48;100881.28;;;13.82;100.00
36380;BME280;22411;53.016;18.632;2023-06-14T03:06:14;100887.88;;;13.86;100.00
36380;BME280;22411;53.016;18.632;2023-06-14T03:08:42;100882.44;;;13.90;100.00
36380;BME280;22411;53.016;18.632;2023-06-14T03:11:08;100884.94;;;13.91;100.00
36380;BME280;22411;53.016;18.632;2023-06-14T03:13:34;100890.13;;;13.91;100.00
36380;BME280;22411;53.016;18.632;2023-06-14T03:16:01;100889.09;;;13.94;100.00
36380;BME280;22411;53.016;18.632;2023-06-14T03:18:30;100891.69;;;13.94;100.00
36380;BME280;22411;53.016;18.632;2023-06-14T03:20:57;100888.97;;;13.95;100.00
36380;BME280;22411;53.016;18.632;2023-06-14T03:23:24;100896.91;;;13.94;100.00
36380;BME280;22411;53.016;18.632;2023-06-14T03:25:51;100886.38;;;13.95;100.00
36380;BME280;22411;53.016;18.632;2023-06-14T03:28:17;100893.97;;;13.98;100.00
36380;BME280;22411;53.016;18.632;2023-06-14T03:30:43;100895.34;;;14.02;100.00
36380;BME280;22411;53.016;18.632;2023-06-14T03:33:08;100891.09;;;14.01;100.00
36380;BME280;22411;53.016;18.632;2023-06-14T03:35:35;100894.66;;;14.00;100.00
36380;BME280;22411;53.016;18.632;2023-06-14T03:38:00;100892.88;;;14.01;100.00
36380;BME280;22411;53.016;18.632;2023-06-14T03:40:26;100899.75;;;14.02;100.00
36380;BME280;22411;53.016;18.632;2023-06-14T03:42:55;100897.75;;;14.05;100.00
36380;BME280;22411;53.016;18.632;2023-06-14T03:45:21;100900.13;;;14.08;100.00
36380;BME280;22411;53.016;18.632;2023-06-14T03:47:47;100905.22;;;14.10;100.00
36380;BME280;22411;53.016;18.632;2023-06-14T03:50:13;100911.84;;;14.14;100.00
36380;BME280;22411;53.016;18.632;2023-06-14T03:52:38;100909.25;;;14.14;100.00
36380;BME280;22411;53.016;18.632;2023-06-14T03:55:05;100913.38;;;14.17;100.00
36380;BME280;22411;53.016;18.632;2023-06-14T03:57:31;100918.59;;;14.17;100.00
36380;BME280;22411;53.016;18.632;2023-06-14T03:59:57;100908.28;;;14.15;100.00
36380;BME280;22411;53.016;18.632;2023-06-14T04:02:22;100912.56;;;14.16;100.00
36380;BME280;22411;53.016;18.632;2023-06-14T04:04:49;100908.03;;;14.18;100.00
36380;BME280;22411;53.016;18.632;2023-06-14T04:07:15;100903.44;;;14.22;100.00
36380;BME280;22411;53.016;18.632;2023-06-14T04:09:45;100903.78;;;14.28;100.00
36380;BME280;22411;53.016;18.632;2023-06-14T04:12:10;100909.38;;;14.35;100.00
36380;BME280;22411;53.016;18.632;2023-06-14T04:14:37;100903.06;;;14.37;100.00
36380;BME280;22411;53.016;18.632;2023-06-14T04:17:03;100896.69;;;14.42;100.00
36380;BME280;22411;53.016;18.632;2023-06-14T04:19:29;100905.56;;;14.39;100.00
36380;BME280;22411;53.016;18.632;2023-06-14T04:21:55;100898.59;;;14.39;100.00
36380;BME280;22411;53.016;18.632;2023-06-14T04:24:21;100901.66;;;14.33;100.00
36380;BME280;22411;53.016;18.632;2023-06-14T04:26:46;100901.78;;;14.21;100.00
36380;BME280;22411;53.016;18.632;2023-06-14T04:29:14;100914.13;;;14.19;100.00
36380;BME280;22411;53.016;18.632;2023-06-14T04:31:45;100905.44;;;14.18;100.00
36380;BME280;22411;53.016;18.632;2023-06-14T04:34:12;100906.28;;;14.30;100.00
36380;BME280;22411;53.016;18.632;2023-06-14T04:36:43;100913.38;;;14.39;100.00
36380;BME280;22411;53.016;18.632;2023-06-14T04:39:16;100924.91;;;14.48;100.00
36380;BME280;22411;53.016;18.632;2023-06-14T04:41:43;100921.47;;;14.58;100.00
36380;BME280;22411;53.016;18.632;2023-06-14T04:44:09;100928.56;;;14.68;100.00
36380;BME280;22411;53.016;18.632;2023-06-14T04:46:35;100923.31;;;14.79;100.00
36380;BME280;22411;53.016;18.632;2023-06-14T04:49:17;100924.13;;;14.90;100.00
36380;BME280;22411;53.016;18.632;2023-06-14T04:51:44;100909.38;;;15.01;100.00
36380;BME280;22411;53.016;18.632;2023-06-14T04:54:10;100910.44;;;15.09;100.00
36380;BME280;22411;53.016;18.632;2023-06-14T04:56:38;100897.34;;;15.21;100.00
36380;BME280;22411;53.016;18.632;2023-06-14T04:59:04;100901.69;;;15.31;100.00
36380;BME280;22411;53.016;18.632;2023-06-14T05:01:31;100899.84;;;15.43;100.00
36380;BME280;22411;53.016;18.632;2023-06-14T05:03:58;100901.13;;;15.49;100.00
36380;BME280;22411;53.016;18.632;2023-06-14T05:06:24;100904.03;;;15.55;100.00
36380;BME280;22411;53.016;18.632;2023-06-14T05:08:49;100906.66;;;15.55;100.00
36380;BME280;22411;53.016;18.632;2023-06-14T05:11:15;100895.38;;;15.55;100.00
36380;BME280;22411;53.016;18.632;2023-06-14T05:13:42;100897.75;;;15.58;100.00
36380;BME280;22411;53.016;18.632;2023-06-14T05:16:10;100886.59;;;15.56;100.00
36380;BME280;22411;53.016;18.632;2023-06-14T05:18:37;100889.31;;;15.54;100.00
36380;BME280;22411;53.016;18.632;2023-06-14T05:21:03;100878.97;;;15.64;100.00
36380;BME280;22411;53.016;18.632;2023-06-14T05:23:31;100885.31;;;15.71;100.00
36380;BME280;22411;53.016;18.632;2023-06-14T05:25:57;100886.63;;;15.77;100.00
36380;BME280;22411;53.016;18.632;2023-06-14T05:28:23;100894.38;;;15.88;100.00
36380;BME280;22411;53.016;18.632;2023-06-14T05:30:48;100894.50;;;15.86;100.00
36380;BME280;22411;53.016;18.632;2023-06-14T05:33:14;100892.03;;;15.85;100.00
36380;BME280;22411;53.016;18.632;2023-06-14T05:35:40;100898.91;;;15.86;100.00
36380;BME280;22411;53.016;18.632;2023-06-14T05:38:06;100891.34;;;15.83;100.00
36380;BME280;22411;53.016;18.632;2023-06-14T05:40:33;100901.78;;;15.83;100.00
36380;BME280;22411;53.016;18.632;2023-06-14T05:42:59;100893.94;;;15.83;100.00
36380;BME280;22411;53.016;18.632;2023-06-14T05:45:24;100906.06;;;15.84;100.00
36380;BME280;22411;53.016;18.632;2023-06-14T05:47:51;100905.09;;;15.85;100.00
36380;BME280;22411;53.016;18.632;2023-06-14T05:50:17;100910.53;;;15.72;100.00
36380;BME280;22411;53.016;18.632;2023-06-14T05:52:43;100904.47;;;15.72;100.00
36380;BME280;22411;53.016;18.632;2023-06-14T05:55:09;100917.53;;;15.60;100.00
36380;BME280;22411;53.016;18.632;2023-06-14T05:57:37;100917.78;;;15.68;100.00
36380;BME280;22411;53.016;18.632;2023-06-14T06:00:03;100910.31;;;15.85;100.00
36380;BME280;22411;53.016;18.632;2023-06-14T06:02:41;100911.63;;;16.00;100.00
36380;BME280;22411;53.016;18.632;2023-06-14T06:05:08;100917.59;;;16.12;100.00
36380;BME280;22411;53.016;18.632;2023-06-14T06:07:34;100920.50;;;16.18;100.00
36380;BME280;22411;53.016;18.632;2023-06-14T06:09:59;100912.94;;;16.15;100.00
36380;BME280;22411;53.016;18.632;2023-06-14T06:12:25;100909.72;;;16.02;100.00
36380;BME280;22411;53.016;18.632;2023-06-14T06:14:51;100904.91;;;16.07;100.00
36380;BME280;22411;53.016;18.632;2023-06-14T06:17:17;100912.91;;;16.06;100.00
36380;BME280;22411;53.016;18.632;2023-06-14T06:19:42;100921.56;;;16.06;100.00
36380;BME280;22411;53.016;18.632;2023-06-14T06:22:08;100928.72;;;16.04;100.00
36380;BME280;22411;53.016;18.632;2023-06-14T06:24:34;100930.97;;;16.09;100.00
36380;BME280;22411;53.016;18.632;2023-06-14T06:26:59;100924.47;;;16.13;100.00
36380;BME280;22411;53.016;18.632;2023-06-14T06:29:25;100928.28;;;15.99;100.00
36380;BME280;22411;53.016;18.632;2023-06-14T06:31:51;100919.63;;;15.99;100.00
36380;BME280;22411;53.016;18.632;2023-06-14T06:34:17;100906.56;;;15.78;100.00
36380;BME280;22411;53.016;18.632;2023-06-14T06:36:43;100907.41;;;15.78;100.00
36380;BME280;22411;53.016;18.632;2023-06-14T06:39:08;100914.09;;;15.60;100.00
36380;BME280;22411;53.016;18.632;2023-06-14T06:41:38;100915.91;;;15.59;100.00
36380;BME280;22411;53.016;18.632;2023-06-14T06:44:05;100907.94;;;15.40;100.00
36380;BME280;22411;53.016;18.632;2023-06-14T06:46:32;100913.16;;;15.40;100.00
36380;BME280;22411;53.016;18.632;2023-06-14T06:48:57;100920.56;;;15.35;100.00
36380;BME280;22411;53.016;18.632;2023-06-14T06:51:23;100925.00;;;15.44;100.00
36380;BME280;22411;53.016;18.632;2023-06-14T06:53:53;100924.25;;;15.53;100.00
36380;BME280;22411;53.016;18.632;2023-06-14T06:56:22;100930.84;;;15.68;100.00
36380;BME280;22411;53.016;18.632;2023-06-14T06:58:49;100926.25;;;15.82;100.00
36380;BME280;22411;53.016;18.632;2023-06-14T07:01:16;100920.63;;;15.86;100.00
36380;BME280;22411;53.016;18.632;2023-06-14T07:03:41;100916.19;;;15.98;100.00
36380;BME280;22411;53.016;18.632;2023-06-14T07:06:07;100918.38;;;16.03;100.00
36380;BME280;22411;53.016;18.632;2023-06-14T07:08:33;100918.63;;;16.20;100.00
36380;BME280;22411;53.016;18.632;2023-06-14T07:10:58;100916.06;;;16.30;100.00
36380;BME280;22411;53.016;18.632;2023-06-14T07:13:24;100923.38;;;16.36;100.00
36380;BME280;22411;53.016;18.632;2023-06-14T07:15:50;100925.78;;;16.59;100.00
36380;BME280;22411;53.016;18.632;2023-06-14T07:18:18;100927.91;;;16.75;100.00
36380;BME280;22411;53.016;18.632;2023-06-14T07:20:44;100941.44;;;16.89;100.00
36380;BME280;22411;53.016;18.632;2023-06-14T07:23:10;100945.19;;;17.06;100.00
36380;BME280;22411;53.016;18.632;2023-06-14T07:25:36;100949.75;;;17.23;100.00
36380;BME280;22411;53.016;18.632;2023-06-14T07:28:02;100946.88;;;17.36;100.00
36380;BME280;22411;53.016;18.632;2023-06-14T07:30:27;100944.94;;;17.19;100.00
36380;BME280;22411;53.016;18.632;2023-06-14T07:32:55;100945.47;;;17.42;100.00
36380;BME280;22411;53.016;18.632;2023-06-14T07:35:21;100946.97;;;17.54;100.00
36380;BME280;22411;53.016;18.632;2023-06-14T07:37:47;100949.19;;;17.59;100.00
36380;BME280;22411;53.016;18.632;2023-06-14T07:40:13;100955.94;;;17.81;100.00
36380;BME280;22411;53.016;18.632;2023-06-14T07:42:39;100965.88;;;17.87;100.00
36380;BME280;22411;53.016;18.632;2023-06-14T07:45:05;100960.59;;;17.96;100.00
36380;BME280;22411;53.016;18.632;2023-06-14T07:47:31;100962.97;;;17.99;100.00
36380;BME280;22411;53.016;18.632;2023-06-14T07:49:57;100959.75;;;18.15;100.00
36380;BME280;22411;53.016;18.632;2023-06-14T07:52:22;100967.22;;;18.47;100.00
36380;BME280;22411;53.016;18.632;2023-06-14T07:54:48;100977.41;;;18.88;100.00
36380;BME280;22411;53.016;18.632;2023-06-14T07:57:14;100973.81;;;19.24;100.00
36380;BME280;22411;53.016;18.632;2023-06-14T07:59:40;100976.25;;;19.53;100.00
36380;BME280;22411;53.016;18.632;2023-06-14T08:02:06;100971.34;;;19.58;100.00
36380;BME280;22411;53.016;18.632;2023-06-14T08:04:32;100975.03;;;19.48;100.00
36380;BME280;22411;53.016;18.632;2023-06-14T08:06:59;100974.72;;;19.51;100.00
36380;BME280;22411;53.016;18.632;2023-06-14T08:09:26;100979.31;;;19.49;100.00
36380;BME280;22411;53.016;18.632;2023-06-14T08:11:54;100979.84;;;19.52;100.00
36380;BME280;22411;53.016;18.632;2023-06-14T08:14:20;100981.78;;;19.50;100.00
36380;BME280;22411;53.016;18.632;2023-06-14T08:16:46;100988.25;;;19.38;100.00
36380;BME280;22411;53.016;18.632;2023-06-14T08:19:11;100992.81;;;19.18;100.00
36380;BME280;22411;53.016;18.632;2023-06-14T08:21:37;100998.59;;;19.04;100.00
36380;BME280;22411;53.016;18.632;2023-06-14T08:24:03;100992.81;;;19.00;100.00
36380;BME280;22411;53.016;18.632;2023-06-14T08:26:29;100985.97;;;19.07;100.00
36380;BME280;22411;53.016;18.632;2023-06-14T08:28:55;100994.47;;;19.19;100.00
36380;BME280;22411;53.016;18.632;2023-06-14T08:31:21;100984.28;;;19.16;100.00
36380;BME280;22411;53.016;18.632;2023-06-14T08:33:47;100983.84;;;19.21;100.00
36380;BME280;22411;53.016;18.632;2023-06-14T08:36:13;100968.31;;;18.82;100.00
36380;BME280;22411;53.016;18.632;2023-06-14T08:38:39;100964.78;;;18.73;100.00
36380;BME280;22411;53.016;18.632;2023-06-14T08:41:05;100961.16;;;18.74;100.00
36380;BME280;22411;53.016;18.632;2023-06-14T08:43:34;100953.09;;;18.86;100.00
36380;BME280;22411;53.016;18.632;2023-06-14T08:46:03;100948.88;;;18.75;100.00
36380;BME280;22411;53.016;18.632;2023-06-14T08:48:32;100951.94;;;18.33;100.00
36380;BME280;22411;53.016;18.632;2023-06-14T08:51:02;100946.69;;;18.33;100.00
36380;BME280;22411;53.016;18.632;2023-06-14T08:53:32;100939.91;;;18.40;100.00
36380;BME280;22411;53.016;18.632;2023-06-14T08:56:02;100932.91;;;18.31;100.00
36380;BME280;22411;53.016;18.632;2023-06-14T08:58:33;100934.53;;;18.60;100.00
36380;BME280;22411;53.016;18.632;2023-06-14T09:01:02;100931.13;;;19.04;100.00
36380;BME280;22411;53.016;18.632;2023-06-14T09:03:28;100936.34;;;19.58;100.00
36380;BME280;22411;53.016;18.632;2023-06-14T09:05:58;100941.34;;;19.87;100.00
36380;BME280;22411;53.016;18.632;2023-06-14T09:08:27;100946.22;;;20.00;100.00
36380;BME280;22411;53.016;18.632;2023-06-14T09:10:57;100958.59;;;20.42;100.00
36380;BME280;22411;53.016;18.632;2023-06-14T09:13:23;100967.22;;;20.94;100.00
36380;BME280;22411;53.016;18.632;2023-06-14T09:15:48;100975.53;;;21.40;100.00
36380;BME280;22411;53.016;18.632;2023-06-14T09:18:15;100973.53;;;21.91;100.00
36380;BME280;22411;53.016;18.632;2023-06-14T09:20:40;100974.28;;;22.32;100.00
36380;BME280;22411;53.016;18.632;2023-06-14T09:23:06;100980.38;;;22.41;100.00
36380;BME280;22411;53.016;18.632;2023-06-14T09:25:42;100983.47;;;22.44;100.00
36380;BME280;22411;53.016;18.632;2023-06-14T09:28:09;100983.63;;;22.51;100.00
36380;BME280;22411;53.016;18.632;2023-06-14T09:30:37;100981.25;;;22.25;100.00
36380;BME280;22411;53.016;18.632;2023-06-14T09:33:03;100984.91;;;21.91;100.00
36380;BME280;22411;53.016;18.632;2023-06-14T09:35:31;100983.09;;;21.92;100.00
36380;BME280;22411;53.016;18.632;2023-06-14T09:37:57;100979.13;;;21.88;100.00
36380;BME280;22411;53.016;18.632;2023-06-14T09:40:23;100978.00;;;21.74;100.00
36380;BME280;22411;53.016;18.632;2023-06-14T09:42:49;100984.09;;;21.50;100.00
36380;BME280;22411;53.016;18.632;2023-06-14T09:45:16;100973.88;;;21.55;100.00
36380;BME280;22411;53.016;18.632;2023-06-14T09:47:50;100977.03;;;21.59;100.00
36380;BME280;22411;53.016;18.632;2023-06-14T09:50:15;100975.69;;;21.55;100.00
36380;BME280;22411;53.016;18.632;2023-06-14T09:52:43;100977.66;;;21.45;100.00
36380;BME280;22411;53.016;18.632;2023-06-14T09:55:13;100983.44;;;21.48;100.00
36380;BME280;22411;53.016;18.632;2023-06-14T09:57:41;100977.69;;;21.69;100.00
36380;BME280;22411;53.016;18.632;2023-06-14T10:00:09;100980.16;;;21.54;100.00
36380;BME280;22411;53.016;18.632;2023-06-14T10:02:39;100979.31;;;21.70;100.00
36380;BME280;22411;53.016;18.632;2023-06-14T10:05:09;100976.16;;;21.99;100.00
36380;BME280;22411;53.016;18.632;2023-06-14T10:10:13;100983.78;;;22.58;100.00
36380;BME280;22411;53.016;18.632;2023-06-14T10:12:39;100976.31;;;23.01;100.00
36380;BME280;22411;53.016;18.632;2023-06-14T10:15:07;100982.16;;;23.42;100.00
36380;BME280;22411;53.016;18.632;2023-06-14T10:17:43;100977.00;;;23.86;100.00
36380;BME280;22411;53.016;18.632;2023-06-14T10:20:35;100975.28;;;24.23;100.00
36380;BME280;22411;53.016;18.632;2023-06-14T10:23:10;100977.97;;;24.52;100.00
36380;BME280;22411;53.016;18.632;2023-06-14T10:25:38;100975.66;;;24.35;100.00
36380;BME280;22411;53.016;18.632;2023-06-14T10:33:29;100973.50;;;24.89;100.00
36380;BME280;22411;53.016;18.632;2023-06-14T10:39:04;100965.06;;;25.00;100.00
36380;BME280;22411;53.016;18.632;2023-06-14T10:41:31;100972.81;;;25.02;100.00
36380;BME280;22411;53.016;18.632;2023-06-14T10:46:59;100967.31;;;25.89;100.00
36380;BME280;22411;53.016;18.632;2023-06-14T10:49:45;100977.09;;;26.58;97.50
36380;BME280;22411;53.016;18.632;2023-06-14T10:52:14;100971.44;;;26.74;93.75
36380;BME280;22411;53.016;18.632;2023-06-14T10:57:33;100969.13;;;27.59;89.29
36380;BME280;22411;53.016;18.632;2023-06-14T10:59:59;100964.22;;;27.49;87.49
36380;BME280;22411;53.016;18.632;2023-06-14T11:05:23;100977.56;;;26.68;88.55
36380;BME280;22411;53.016;18.632;2023-06-14T11:10:42;100971.31;;;26.13;87.36
36380;BME280;22411;53.016;18.632;2023-06-14T11:13:08;100966.25;;;26.18;78.53
36380;BME280;22411;53.016;18.632;2023-06-14T11:15:38;100963.63;;;26.25;77.82
36380;BME280;22411;53.016;18.632;2023-06-14T11:18:08;100961.28;;;26.08;74.04
36380;BME280;22411;53.016;18.632;2023-06-14T11:20:37;100958.03;;;25.78;71.95
36380;BME280;22411;53.016;18.632;2023-06-14T11:23:04;100943.56;;;25.32;76.40
36380;BME280;22411;53.016;18.632;2023-06-14T11:25:30;100940.31;;;25.15;76.48
36380;BME280;22411;53.016;18.632;2023-06-14T11:27:56;100948.25;;;25.36;77.97
36380;BME280;22411;53.016;18.632;2023-06-14T11:30:23;100949.44;;;25.27;80.93
36380;BME280;22411;53.016;18.632;2023-06-14T11:32:50;100950.72;;;25.59;81.95
36380;BME280;22411;53.016;18.632;2023-06-14T11:35:18;100946.69;;;25.91;76.59
36380;BME280;22411;53.016;18.632;2023-06-14T11:37:44;100948.50;;;26.25;77.99
36380;BME280;22411;53.016;18.632;2023-06-14T11:40:11;100953.63;;;26.27;77.57
36380;BME280;22411;53.016;18.632;2023-06-14T11:42:39;100951.28;;;26.45;76.04
36380;BME280;22411;53.016;18.632;2023-06-14T11:45:09;100951.03;;;26.40;75.63
36380;BME280;22411;53.016;18.632;2023-06-14T11:47:36;100948.94;;;26.29;75.91
36380;BME280;22411;53.016;18.632;2023-06-14T11:50:04;100948.81;;;26.09;74.04
36380;BME280;22411;53.016;18.632;2023-06-14T11:52:31;100944.03;;;25.91;75.01
36380;BME280;22411;53.016;18.632;2023-06-14T11:54:57;100938.84;;;25.55;82.18
36380;BME280;22411;53.016;18.632;2023-06-14T11:57:24;100935.91;;;25.22;81.82
36380;BME280;22411;53.016;18.632;2023-06-14T11:59:51;100931.72;;;24.91;79.82
36380;BME280;22411;53.016;18.632;2023-06-14T12:02:18;100933.78;;;24.74;81.84
36380;BME280;22411;53.016;18.632;2023-06-14T12:04:46;100928.25;;;24.55;82.51
36380;BME280;22411;53.016;18.632;2023-06-14T12:07:15;100925.13;;;24.51;84.43
36380;BME280;22411;53.016;18.632;2023-06-14T12:12:35;100929.16;;;23.88;87.42
36380;BME280;22411;53.016;18.632;2023-06-14T12:15:06;100923.63;;;23.60;94.41
36380;BME280;22411;53.016;18.632;2023-06-14T12:17:36;100925.16;;;23.54;91.87
36380;BME280;22411;53.016;18.632;2023-06-14T12:20:11;100936.63;;;23.32;93.57
36380;BME280;22411;53.016;18.632;2023-06-14T12:22:55;100924.09;;;23.03;98.68
36380;BME280;22411;53.016;18.632;2023-06-14T12:27:54;100922.97;;;22.66;100.00
36380;BME280;22411;53.016;18.632;2023-06-14T12:30:21;100927.69;;;22.48;100.00
36380;BME280;22411;53.016;18.632;2023-06-14T12:32:47;100927.06;;;22.37;100.00
36380;BME280;22411;53.016;18.632;2023-06-14T12:35:12;100922.44;;;22.39;100.00
36380;BME280;22411;53.016;18.632;2023-06-14T12:37:38;100922.34;;;22.56;95.42
36380;BME280;22411;53.016;18.632;2023-06-14T12:40:04;100920.19;;;22.59;89.30
36380;BME280;22411;53.016;18.632;2023-06-14T12:42:32;100924.47;;;22.60;87.95
36380;BME280;22411;53.016;18.632;2023-06-14T12:44:59;100920.44;;;22.73;87.80
36380;BME280;22411;53.016;18.632;2023-06-14T12:47:25;100915.97;;;23.04;89.10
36380;BME280;22411;53.016;18.632;2023-06-14T12:49:51;100919.88;;;23.16;90.41
36380;BME280;22411;53.016;18.632;2023-06-14T12:52:16;100911.81;;;23.33;88.83
36380;BME280;22411;53.016;18.632;2023-06-14T12:54:42;100910.94;;;23.55;85.04
36380;BME280;22411;53.016;18.632;2023-06-14T12:57:08;100909.72;;;23.66;78.81
36380;BME280;22411;53.016;18.632;2023-06-14T12:59:34;100914.84;;;23.82;78.95
36380;BME280;22411;53.016;18.632;2023-06-14T13:02:10;100911.84;;;24.00;82.15